KALS/ALS METAR and TAF weather

Enter ICAO airport designator
Station Type Date Time Source
KALS METAR 2024/04/17 17:52 UTC NOAA

KALS 171752Z AUTO 21010KT 10SM CLR 16/M08 A3007 RMK AO2 SLP132 T01611083 10161 21072 58019


Station Type Date Time Source
KALS Decoded METAR 2024/04/17 17:52 UTC NOAA

SAN LUIS VALLEY REGIONAL, CO, United States (KALS) 37-26N 105-52W 2299M
Apr 17, 2024 - 01:52 PM EDT / 2024.04.17 1752 UTC
Wind: from the SSW (210 degrees) at 12 MPH (10 KT):0
Visibility: 10 mile(s):0
Sky conditions: clear
Temperature: 61.0 F (16.1 C)
Dew Point: 17.1 F (-8.3 C)
Relative Humidity: 17%
Pressure (altimeter): 30.07 in. Hg (1018 hPa)
Pressure tendency: 0.06 inches (1.9 hPa) lower than three hours ago
ob: KALS 171752Z AUTO 21010KT 10SM CLR 16/M08 A3007 RMK AO2 SLP132 T01611083 10161 21072 58019
cycle: 18

Station Type Date Time Source
KALS TAF 2024/04/17 18:34 UTC NOAA